Time;durP1;ratioP1;P1;durP2;ratioP2;P2;SDS_P1;SDS_P2;PMS_P1;PMS_P2;Temp;Humidity;BMP_temperature;BMP_pressure;BME280_temperature;BME280_humidity;BME280_pressure;Samples;Min_cycle;Max_cycle;Signal;HPM_P1;HPM_P2
2023/07/31 00:03:19;;;;;;;3.17;1.85;;;21.30;70.30;;;;;;10377533;28;20025;-54
2023/07/31 00:08:20;;;;;;;2.55;1.15;;;21.30;70.30;;;;;;10365011;28;20024;-54
2023/07/31 00:13:20;;;;;;;2.30;1.20;;;21.30;70.30;;;;;;10330621;28;20025;-55
2023/07/31 00:18:21;;;;;;;2.10;1.00;;;21.20;70.30;;;;;;10355208;28;20038;-54
2023/07/31 00:23:22;;;;;;;1.40;0.90;;;21.20;70.30;;;;;;10328440;28;20361;-54
2023/07/31 00:28:22;;;;;;;2.03;1.30;;;21.20;70.30;;;;;;10328171;28;20022;-55
2023/07/31 00:33:23;;;;;;;2.25;0.90;;;21.20;70.40;;;;;;10328572;28;20445;-55
2023/07/31 00:38:24;;;;;;;2.25;1.27;;;21.20;70.40;;;;;;10328830;28;20061;-54
2023/07/31 00:43:25;;;;;;;2.25;1.13;;;21.20;70.40;;;;;;10329010;28;20047;-55
2023/07/31 00:48:26;;;;;;;2.25;1.20;;;21.20;70.50;;;;;;10328453;28;20027;-54
2023/07/31 00:53:27;;;;;;;1.60;0.95;;;21.20;70.60;;;;;;10328499;28;20031;-55
2023/07/31 00:58:28;;;;;;;2.40;1.35;;;21.20;70.60;;;;;;10327867;28;20033;-54
2023/07/31 01:03:29;;;;;;;4.78;2.22;;;21.20;70.60;;;;;;10328496;28;20022;-54
2023/07/31 01:09:02;;;;;;;2.85;1.75;;;21.20;70.70;;;;;;10340806;28;20088;-54
2023/07/31 01:14:03;;;;;;;3.33;1.25;;;21.20;70.70;;;;;;10378782;28;20054;-53
2023/07/31 01:19:05;;;;;;;3.08;1.90;;;21.20;70.70;;;;;;10326622;28;20034;-55
2023/07/31 01:24:33;;;;;;;3.35;1.70;;;21.20;70.80;;;;;;10326766;28;20381;-55
2023/07/31 01:29:42;;;;;;;4.13;1.50;;;21.20;70.80;;;;;;10326596;28;20038;-55
2023/07/31 01:34:44;;;;;;;4.10;1.55;;;21.20;70.80;;;;;;10326390;28;20046;-55
2023/07/31 01:39:44;;;;;;;4.30;1.73;;;21.20;70.90;;;;;;10326179;28;20101;-55
2023/07/31 01:44:45;;;;;;;4.57;2.00;;;21.20;70.90;;;;;;10327025;28;20046;-55
2023/07/31 01:49:45;;;;;;;6.32;2.15;;;21.10;70.90;;;;;;10327236;28;20065;-55
2023/07/31 01:54:46;;;;;;;4.97;2.13;;;21.20;71.00;;;;;;10326045;28;20022;-55
2023/07/31 01:59:47;;;;;;;3.70;1.90;;;21.10;70.90;;;;;;10325851;28;20121;-54
2023/07/31 02:04:47;;;;;;;3.20;1.67;;;21.10;70.90;;;;;;10326257;28;20097;-54
2023/07/31 02:09:48;;;;;;;4.88;2.28;;;21.10;71.00;;;;;;10338906;28;20161;-54
2023/07/31 02:14:49;;;;;;;4.32;1.77;;;21.20;71.10;;;;;;10336666;28;20110;-55
2023/07/31 02:19:49;;;;;;;4.28;2.13;;;21.10;71.00;;;;;;10366030;28;20925;-55
2023/07/31 02:24:50;;;;;;;4.50;2.40;;;21.10;71.00;;;;;;10366106;28;20334;-55
2023/07/31 02:29:51;;;;;;;3.65;2.03;;;21.10;71.00;;;;;;10365635;28;20132;-53
2023/07/31 02:34:51;;;;;;;7.22;2.67;;;21.10;71.00;;;;;;10363889;28;20014;-55
2023/07/31 02:39:52;;;;;;;3.40;2.15;;;21.10;71.10;;;;;;10364579;28;20129;-54
2023/07/31 02:44:55;;;;;;;4.10;2.38;;;21.10;71.10;;;;;;10365489;28;20097;-54
2023/07/31 02:49:56;;;;;;;5.25;2.67;;;21.10;71.10;;;;;;10364822;28;20030;-55
2023/07/31 02:54:58;;;;;;;3.75;2.03;;;21.10;71.10;;;;;;10358015;28;20092;-55
2023/07/31 02:59:58;;;;;;;4.18;2.47;;;21.10;71.10;;;;;;10333140;28;20117;-53
2023/07/31 03:04:59;;;;;;;3.97;1.77;;;21.10;71.10;;;;;;10324328;28;20022;-55
2023/07/31 03:10:00;;;;;;;4.57;2.28;;;21.10;71.10;;;;;;10348480;28;20079;-55
2023/07/31 03:15:00;;;;;;;5.70;2.78;;;21.10;71.10;;;;;;10352096;28;20056;-54
2023/07/31 03:20:01;;;;;;;4.25;2.60;;;21.10;71.10;;;;;;10332270;28;20125;-55
2023/07/31 03:25:03;;;;;;;4.78;2.55;;;21.10;71.10;;;;;;10357124;28;20032;-53
2023/07/31 03:30:04;;;;;;;5.60;2.65;;;21.10;71.20;;;;;;10360578;28;20035;-52
2023/07/31 03:35:05;;;;;;;5.28;3.40;;;21.10;71.10;;;;;;10357886;28;20022;-53
2023/07/31 03:40:07;;;;;;;4.70;3.20;;;21.10;71.20;;;;;;10357682;28;20877;-53
2023/07/31 03:45:08;;;;;;;5.22;2.50;;;21.00;71.10;;;;;;10362539;28;20014;-53
2023/07/31 03:50:09;;;;;;;6.40;3.17;;;21.10;71.20;;;;;;10369117;28;20386;-55
2023/07/31 03:55:10;;;;;;;4.45;2.70;;;21.00;71.10;;;;;;10366931;28;20020;-54
2023/07/31 04:00:11;;;;;;;5.45;3.00;;;21.00;71.10;;;;;;10379142;28;20054;-54
2023/07/31 04:05:12;;;;;;;5.40;3.17;;;21.10;71.10;;;;;;10365623;28;20109;-54
2023/07/31 04:10:12;;;;;;;6.63;3.28;;;21.00;71.10;;;;;;10365886;28;20556;-54
2023/07/31 04:15:13;;;;;;;5.20;3.03;;;21.00;71.10;;;;;;10364419;28;20106;-55
2023/07/31 04:20:14;;;;;;;5.25;2.83;;;21.00;71.10;;;;;;10365324;28;20607;-55
2023/07/31 04:25:14;;;;;;;7.45;3.00;;;21.00;71.10;;;;;;10339811;28;20077;-55
2023/07/31 04:30:15;;;;;;;6.20;3.20;;;21.00;71.10;;;;;;10337837;28;20031;-55
2023/07/31 04:35:16;;;;;;;6.38;2.90;;;21.00;71.10;;;;;;10329943;28;20458;-54
2023/07/31 04:40:16;;;;;;;5.80;2.63;;;21.00;71.30;;;;;;10348292;28;20057;-52
2023/07/31 04:45:17;;;;;;;8.85;3.38;;;21.00;71.10;;;;;;10365406;28;20685;-55
2023/07/31 04:50:18;;;;;;;23.70;4.80;;;21.10;71.20;;;;;;10348585;28;20481;-55
2023/07/31 04:55:18;;;;;;;23.02;4.75;;;21.30;71.40;;;;;;10340068;28;20865;-56
2023/07/31 05:00:19;;;;;;;12.82;4.80;;;21.30;71.00;;;;;;10327222;28;20452;-54
2023/07/31 05:05:20;;;;;;;9.30;4.88;;;21.40;71.70;;;;;;10326848;28;20488;-54
2023/07/31 05:10:21;;;;;;;19.52;5.22;;;21.40;71.30;;;;;;10352152;28;20022;-54
2023/07/31 05:15:21;;;;;;;10.93;3.42;;;21.50;71.60;;;;;;10344600;28;20014;-54
2023/07/31 05:20:22;;;;;;;7.85;3.85;;;21.30;71.60;;;;;;10365824;28;20430;-54
2023/07/31 05:25:23;;;;;;;10.25;4.05;;;21.30;72.80;;;;;;10362487;28;20025;-54
2023/07/31 05:30:23;;;;;;;7.65;2.92;;;21.20;71.70;;;;;;10361618;28;20018;-54
2023/07/31 05:35:24;;;;;;;8.45;3.65;;;21.20;71.70;;;;;;10367985;28;20779;-53
2023/07/31 05:40:25;;;;;;;13.50;3.85;;;21.20;71.20;;;;;;10338322;28;20145;-52
2023/07/31 05:45:25;;;;;;;8.43;3.38;;;21.10;71.40;;;;;;10325568;28;20160;-54
2023/07/31 05:50:26;;;;;;;9.73;4.88;;;21.10;71.40;;;;;;10323484;28;20022;-54
2023/07/31 05:55:27;;;;;;;9.40;3.72;;;21.10;71.40;;;;;;10324546;28;20023;-53
2023/07/31 06:00:28;;;;;;;8.32;3.70;;;21.10;71.60;;;;;;10324363;28;20022;-54
2023/07/31 06:05:29;;;;;;;7.43;3.53;;;21.00;71.50;;;;;;10318295;28;20033;-54
2023/07/31 06:10:30;;;;;;;6.47;3.67;;;21.10;71.60;;;;;;10362721;28;20736;-55
2023/07/31 06:15:31;;;;;;;9.73;4.05;;;21.00;71.60;;;;;;10360798;28;20028;-55
2023/07/31 06:20:31;;;;;;;7.38;4.03;;;21.00;71.60;;;;;;10364803;28;20029;-54
2023/07/31 06:25:33;;;;;;;6.70;3.90;;;21.00;71.60;;;;;;10363049;28;20014;-54
2023/07/31 06:30:33;;;;;;;6.00;3.55;;;21.00;71.60;;;;;;10377824;28;20038;-54
2023/07/31 06:35:34;;;;;;;6.63;4.05;;;21.00;71.60;;;;;;10337491;28;20042;-54
2023/07/31 06:40:35;;;;;;;8.57;3.30;;;21.00;71.60;;;;;;10362762;28;20133;-55
2023/07/31 06:45:36;;;;;;;10.55;4.20;;;21.00;71.60;;;;;;10362867;28;20093;-54
2023/07/31 06:50:37;;;;;;;10.68;3.25;;;21.00;71.60;;;;;;10362758;28;20056;-55
2023/07/31 06:55:38;;;;;;;9.57;3.97;;;21.00;71.60;;;;;;10361731;28;20447;-54
2023/07/31 07:00:38;;;;;;;6.40;3.10;;;21.00;71.70;;;;;;10362695;28;20026;-54
2023/07/31 07:05:39;;;;;;;8.93;3.90;;;20.90;71.70;;;;;;10361675;28;20109;-54
2023/07/31 07:10:40;;;;;;;9.23;3.67;;;21.00;71.70;;;;;;10345733;28;20061;-55
2023/07/31 07:15:41;;;;;;;6.10;3.17;;;21.00;71.60;;;;;;10338691;28;20130;-54
2023/07/31 07:20:53;;;;;;;5.90;3.72;;;21.00;71.60;;;;;;10362753;28;20279;-55
2023/07/31 07:25:54;;;;;;;7.82;3.55;;;21.00;71.70;;;;;;10361779;28;20157;-54
2023/07/31 07:30:55;;;;;;;6.82;3.10;;;21.00;71.80;;;;;;10364645;28;20588;-55
2023/07/31 07:35:59;;;;;;;8.05;3.10;;;20.90;71.70;;;;;;10324124;28;20122;-54
2023/07/31 07:41:00;;;;;;;6.35;3.28;;;20.90;71.70;;;;;;10321617;28;20070;-54
2023/07/31 07:46:00;;;;;;;4.55;2.85;;;20.90;71.80;;;;;;10342586;28;20105;-54
2023/07/31 07:51:01;;;;;;;5.65;2.90;;;20.90;71.80;;;;;;10331707;28;20022;-55
2023/07/31 07:56:02;;;;;;;4.45;2.45;;;20.90;71.80;;;;;;10321182;28;20117;-54
2023/07/31 08:01:02;;;;;;;4.30;2.90;;;20.90;71.80;;;;;;10320878;28;20370;-54
2023/07/31 08:06:03;;;;;;;5.57;2.55;;;20.90;71.80;;;;;;10320937;28;20488;-54
2023/07/31 08:11:04;;;;;;;4.97;2.90;;;20.90;71.80;;;;;;10342912;28;20030;-53
2023/07/31 08:16:05;;;;;;;4.13;2.42;;;20.90;71.90;;;;;;10337189;28;20172;-55
2023/07/31 08:21:06;;;;;;;5.53;2.75;;;20.90;71.80;;;;;;10320929;28;20023;-55
2023/07/31 08:26:07;;;;;;;5.32;2.63;;;20.90;71.80;;;;;;10320608;28;20023;-55
2023/07/31 08:31:07;;;;;;;4.45;2.78;;;20.90;71.80;;;;;;10326489;28;20076;-54
2023/07/31 08:36:08;;;;;;;4.88;2.15;;;20.90;71.90;;;;;;10363432;28;20068;-53
2023/07/31 08:41:09;;;;;;;3.75;2.50;;;20.90;71.80;;;;;;10367936;28;20049;-55
2023/07/31 08:46:10;;;;;;;4.28;2.63;;;20.90;71.80;;;;;;10368268;28;20038;-54
2023/07/31 08:51:11;;;;;;;5.28;2.28;;;20.90;71.70;;;;;;10349247;28;20189;-54
2023/07/31 08:56:14;;;;;;;2.65;1.95;;;20.90;71.70;;;;;;10325746;28;20140;-55
2023/07/31 09:01:16;;;;;;;4.45;1.67;;;20.90;71.70;;;;;;10327689;28;20015;-54
2023/07/31 09:06:20;;;;;;;4.82;2.47;;;20.90;71.70;;;;;;10366281;28;20022;-55
2023/07/31 09:11:22;;;;;;;3.55;1.88;;;20.90;71.80;;;;;;10344046;28;20484;-53
2023/07/31 09:16:31;;;;;;;2.80;1.95;;;20.90;72.20;;;;;;10350835;28;20065;-53
2023/07/31 09:21:32;;;;;;;3.47;2.22;;;20.90;71.90;;;;;;10359592;28;20014;-54
2023/07/31 09:26:35;;;;;;;3.35;1.85;;;20.90;71.90;;;;;;10362562;28;20083;-54
2023/07/31 09:31:43;;;;;;;3.22;2.25;;;20.90;71.80;;;;;;10336890;28;20023;-54
2023/07/31 09:36:49;;;;;;;3.05;1.63;;;20.90;71.90;;;;;;10351778;28;20535;-54
2023/07/31 09:41:56;;;;;;;4.38;2.33;;;20.90;71.80;;;;;;10344462;28;20042;-54
2023/07/31 09:46:57;;;;;;;2.97;1.85;;;20.90;71.80;;;;;;10356184;28;20034;-55
2023/07/31 09:51:58;;;;;;;3.65;1.88;;;20.90;71.70;;;;;;10336780;28;20123;-53
2023/07/31 09:57:00;;;;;;;3.35;2.17;;;20.90;71.60;;;;;;10361562;28;20109;-55
2023/07/31 10:02:00;;;;;;;5.43;2.03;;;20.90;71.50;;;;;;10358575;28;20751;-55
2023/07/31 10:07:03;;;;;;;3.35;1.67;;;20.90;71.50;;;;;;10342058;28;20042;-55
2023/07/31 10:12:09;;;;;;;2.58;1.50;;;20.90;71.60;;;;;;10335297;28;20027;-54
2023/07/31 10:17:11;;;;;;;3.85;2.00;;;20.90;71.50;;;;;;10350331;28;20126;-54
2023/07/31 10:22:13;;;;;;;2.47;1.60;;;20.90;71.60;;;;;;10323467;28;20026;-54
2023/07/31 10:27:13;;;;;;;2.63;1.75;;;20.90;71.80;;;;;;10358366;28;20036;-55
2023/07/31 10:32:15;;;;;;;3.85;2.00;;;21.00;72.20;;;;;;10357786;28;20469;-54
2023/07/31 10:37:27;;;;;;;4.35;2.30;;;21.00;72.30;;;;;;10358534;28;20034;-54
2023/07/31 10:42:52;;;;;;;3.17;1.95;;;21.00;72.40;;;;;;10354512;28;20052;-53
2023/07/31 10:48:21;;;;;;;4.45;2.30;;;21.00;72.40;;;;;;10359286;28;20121;-55
2023/07/31 10:53:26;;;;;;;4.60;2.03;;;21.00;72.30;;;;;;10356144;28;20057;-55
2023/07/31 10:58:27;;;;;;;2.92;2.17;;;21.00;72.30;;;;;;10362701;28;20041;-55
2023/07/31 11:03:52;;;;;;;5.75;2.53;;;21.00;72.30;;;;;;10362550;28;20105;-53
2023/07/31 11:08:52;;;;;;;3.78;2.22;;;21.00;72.30;;;;;;10360467;28;20155;-55
2023/07/31 11:13:54;;;;;;;2.38;1.52;;;21.00;72.40;;;;;;10325789;28;20097;-54
2023/07/31 11:18:55;;;;;;;2.85;2.03;;;21.00;72.50;;;;;;10362714;28;20377;-55
2023/07/31 11:23:57;;;;;;;3.88;2.00;;;21.00;72.60;;;;;;10362755;28;20389;-55
2023/07/31 11:28:58;;;;;;;3.17;2.05;;;21.00;72.50;;;;;;10362131;28;20036;-54
2023/07/31 11:34:06;;;;;;;3.42;2.00;;;21.00;72.60;;;;;;10337802;28;20032;-55
2023/07/31 11:39:09;;;;;;;3.25;2.20;;;21.00;72.40;;;;;;10321343;28;20073;-53
2023/07/31 11:44:10;;;;;;;3.00;1.98;;;20.90;72.40;;;;;;10321554;28;20057;-55
2023/07/31 11:49:11;;;;;;;3.63;2.05;;;20.90;72.40;;;;;;10321585;28;20062;-54
2023/07/31 11:54:13;;;;;;;3.95;2.15;;;21.00;72.50;;;;;;10320025;28;20018;-55
2023/07/31 11:59:14;;;;;;;4.07;2.58;;;21.00;72.60;;;;;;10320961;28;20076;-55
2023/07/31 12:04:15;;;;;;;3.50;2.47;;;21.00;72.50;;;;;;10324539;28;20030;-55
2023/07/31 12:09:16;;;;;;;3.47;2.28;;;21.00;72.60;;;;;;10341917;28;20494;-55
2023/07/31 12:14:25;;;;;;;3.78;2.80;;;21.00;72.60;;;;;;10329536;28;20493;-54
2023/07/31 12:19:29;;;;;;;;;;;20.90;72.50;;;;;;10353390;28;20037;-54
2023/07/31 12:24:30;;;;;;;2.83;1.70;;;20.90;72.60;;;;;;10344072;28;20395;-54
2023/07/31 12:29:35;;;;;;;3.17;2.25;;;21.00;72.60;;;;;;10342817;28;20021;-55
2023/07/31 12:34:43;;;;;;;3.40;2.05;;;20.90;72.60;;;;;;10342786;28;20037;-55
2023/07/31 12:39:44;;;;;;;2.85;2.13;;;21.00;72.80;;;;;;10365650;28;20171;-55
2023/07/31 12:44:44;;;;;;;2.92;2.03;;;20.90;72.70;;;;;;10360511;28;20037;-54
2023/07/31 12:49:45;;;;;;;2.67;2.08;;;21.00;72.80;;;;;;10362434;28;20061;-54
2023/07/31 12:54:46;;;;;;;2.72;2.15;;;21.00;72.80;;;;;;10367081;28;20028;-55
2023/07/31 12:59:46;;;;;;;4.70;2.65;;;20.90;72.70;;;;;;10366471;28;20660;-53
2023/07/31 13:04:47;;;;;;;3.63;2.30;;;20.90;72.80;;;;;;10366168;28;20041;-53
2023/07/31 13:09:48;;;;;;;3.10;2.28;;;20.90;72.70;;;;;;10366163;28;20109;-55
2023/07/31 13:14:50;;;;;;;2.92;2.35;;;20.90;72.60;;;;;;10364997;28;20073;-54
2023/07/31 13:19:51;;;;;;;2.85;2.55;;;21.00;72.80;;;;;;10365430;28;20338;-55
2023/07/31 13:24:52;;;;;;;5.20;2.05;;;20.90;72.80;;;;;;10365552;28;20018;-54
2023/07/31 13:29:52;;;;;;;2.70;1.90;;;21.00;72.90;;;;;;10365459;28;20040;-55
2023/07/31 13:34:53;;;;;;;3.63;2.10;;;20.90;72.80;;;;;;10336106;28;20057;-54
2023/07/31 13:39:54;;;;;;;3.38;2.35;;;20.90;72.80;;;;;;10325733;28;20488;-53
2023/07/31 13:44:56;;;;;;;2.85;2.10;;;20.90;72.80;;;;;;10325215;28;20029;-55
2023/07/31 13:49:56;;;;;;;4.28;2.67;;;20.90;72.90;;;;;;10324015;28;20493;-54
2023/07/31 13:54:57;;;;;;;2.70;2.30;;;20.90;72.90;;;;;;10325001;28;20256;-55
2023/07/31 13:59:58;;;;;;;2.50;1.73;;;20.90;73.00;;;;;;10324732;28;20066;-55
2023/07/31 14:04:58;;;;;;;2.92;2.47;;;20.90;72.90;;;;;;10324248;28;20110;-55
2023/07/31 14:09:59;;;;;;;3.88;2.22;;;20.90;73.00;;;;;;10337576;28;20098;-54
2023/07/31 14:15:00;;;;;;;3.40;2.15;;;20.90;73.00;;;;;;10336521;28;20580;-55
2023/07/31 14:20:01;;;;;;;3.40;2.45;;;20.90;73.00;;;;;;10365083;28;20109;-55
2023/07/31 14:25:02;;;;;;;3.00;2.35;;;20.90;73.00;;;;;;10364044;28;20159;-55
2023/07/31 14:30:03;;;;;;;2.95;1.90;;;20.90;73.10;;;;;;10363922;28;20030;-54
2023/07/31 14:35:04;;;;;;;2.78;2.10;;;20.90;73.10;;;;;;10360572;28;20497;-55
2023/07/31 14:40:06;;;;;;;3.45;2.55;;;20.90;73.00;;;;;;10322949;28;20125;-55
2023/07/31 14:45:07;;;;;;;2.90;2.08;;;20.90;73.10;;;;;;10322805;28;20026;-54
2023/07/31 14:50:09;;;;;;;3.13;2.65;;;20.90;73.10;;;;;;10323135;28;20053;-54
2023/07/31 14:55:09;;;;;;;2.53;2.10;;;20.90;73.10;;;;;;10322795;28;20549;-55
2023/07/31 15:00:11;;;;;;;2.92;2.13;;;20.90;73.10;;;;;;10351242;28;20034;-55
2023/07/31 15:05:12;;;;;;;3.45;2.08;;;20.90;73.20;;;;;;10349374;28;20023;-54
2023/07/31 15:10:12;;;;;;;3.85;2.60;;;20.90;73.20;;;;;;10335585;28;20042;-53
2023/07/31 15:15:15;;;;;;;2.53;2.30;;;20.90;73.10;;;;;;10344357;28;20032;-54
2023/07/31 15:20:15;;;;;;;4.20;2.35;;;20.90;73.10;;;;;;10360869;28;20596;-55
2023/07/31 15:25:16;;;;;;;3.22;2.30;;;20.90;73.10;;;;;;10361839;28;20029;-53
2023/07/31 15:30:17;;;;;;;4.30;3.05;;;20.90;73.20;;;;;;10362044;28;20022;-54
2023/07/31 15:35:18;;;;;;;2.85;2.05;;;20.80;73.20;;;;;;10362431;28;20037;-54
2023/07/31 15:40:19;;;;;;;3.63;2.33;;;20.80;73.20;;;;;;10367640;28;20100;-54
2023/07/31 15:45:20;;;;;;;4.05;2.50;;;20.80;73.20;;;;;;10346986;28;20022;-54
2023/07/31 15:50:21;;;;;;;4.88;2.53;;;20.80;73.50;;;;;;10366979;28;20055;-53
2023/07/31 15:55:22;;;;;;;4.72;2.80;;;20.90;73.50;;;;;;10360837;28;20025;-54
2023/07/31 16:00:22;;;;;;;5.00;2.20;;;20.90;73.60;;;;;;10365091;28;20087;-55
2023/07/31 16:05:23;;;;;;;3.83;2.97;;;20.90;73.50;;;;;;10364975;28;20014;-54
2023/07/31 16:10:24;;;;;;;5.72;2.38;;;20.90;73.70;;;;;;10364920;28;20060;-53
2023/07/31 16:15:24;;;;;;;3.10;2.33;;;20.90;73.60;;;;;;10368942;28;20030;-54
2023/07/31 16:20:25;;;;;;;4.65;2.38;;;21.00;74.30;;;;;;10351808;28;20031;-55
2023/07/31 16:25:26;;;;;;;3.15;1.90;;;20.90;73.50;;;;;;10359420;28;20049;-55
2023/07/31 16:30:27;;;;;;;3.28;2.25;;;20.90;73.50;;;;;;10357003;28;20330;-54
2023/07/31 16:35:27;;;;;;;3.30;2.40;;;20.80;73.50;;;;;;10357493;28;20030;-55
2023/07/31 16:40:29;;;;;;;3.00;2.40;;;20.80;73.40;;;;;;10346626;28;20050;-54
2023/07/31 16:45:29;;;;;;;4.03;2.20;;;20.80;74.00;;;;;;10351539;28;20481;-53
2023/07/31 16:50:30;;;;;;;4.13;1.90;;;20.80;73.40;;;;;;10341972;28;20018;-53
2023/07/31 16:55:33;;;;;;;4.43;2.15;;;20.90;73.30;;;;;;10349671;28;20025;-54
2023/07/31 17:00:34;;;;;;;2.75;2.05;;;20.80;73.30;;;;;;10355224;28;20099;-54
2023/07/31 17:05:35;;;;;;;2.80;1.77;;;20.80;73.70;;;;;;10368149;28;20014;-55
2023/07/31 17:10:36;;;;;;;5.90;1.73;;;20.80;73.60;;;;;;10365027;28;20097;-55
2023/07/31 17:15:37;;;;;;;2.53;1.73;;;20.80;74.10;;;;;;10338730;28;20109;-55
2023/07/31 17:20:37;;;;;;;7.57;2.40;;;20.80;74.10;;;;;;10335036;28;20120;-55
2023/07/31 17:25:39;;;;;;;6.80;2.05;;;20.90;74.40;;;;;;10357908;28;20394;-55
2023/07/31 17:30:40;;;;;;;2.72;1.65;;;20.80;74.40;;;;;;10347034;28;20358;-55
2023/07/31 17:35:40;;;;;;;6.60;1.80;;;20.80;74.20;;;;;;10330649;28;20088;-55
2023/07/31 17:40:41;;;;;;;5.25;1.67;;;20.80;74.00;;;;;;10359914;28;20046;-55
2023/07/31 17:45:42;;;;;;;5.97;1.98;;;20.80;74.40;;;;;;10349455;28;20347;-55
2023/07/31 17:50:43;;;;;;;4.88;1.95;;;20.80;74.60;;;;;;10349893;28;20109;-54
2023/07/31 17:55:43;;;;;;;5.97;2.03;;;20.90;74.80;;;;;;10367687;28;20468;-56
2023/07/31 18:00:44;;;;;;;5.78;2.08;;;20.90;74.80;;;;;;10345888;28;20014;-56
2023/07/31 18:05:44;;;;;;;8.40;2.35;;;20.90;74.70;;;;;;10332616;28;20200;-54
2023/07/31 18:10:46;;;;;;;5.72;2.08;;;20.90;74.90;;;;;;10339621;28;20757;-54
2023/07/31 18:15:47;;;;;;;6.85;2.03;;;20.90;74.90;;;;;;10344709;28;20073;-54
2023/07/31 18:20:48;;;;;;;3.30;1.45;;;20.80;74.50;;;;;;10366451;28;20350;-54
2023/07/31 18:25:49;;;;;;;2.60;1.83;;;20.80;74.60;;;;;;10361743;28;20113;-54
2023/07/31 18:30:49;;;;;;;7.93;1.90;;;20.80;74.60;;;;;;10345264;28;20121;-54
2023/07/31 18:35:50;;;;;;;3.80;1.42;;;20.90;74.60;;;;;;10351401;28;20434;-54
2023/07/31 18:40:51;;;;;;;6.07;1.85;;;20.80;74.90;;;;;;10348886;28;20077;-52
2023/07/31 18:45:51;;;;;;;4.30;1.80;;;20.80;75.00;;;;;;10346667;28;20105;-54
2023/07/31 18:50:52;;;;;;;6.57;1.80;;;20.80;75.10;;;;;;10345301;28;20025;-54
2023/07/31 18:55:53;;;;;;;4.40;2.08;;;20.80;75.20;;;;;;10342544;28;20097;-54
2023/07/31 19:00:53;;;;;;;3.80;1.63;;;20.90;76.00;;;;;;10327684;28;20121;-54
2023/07/31 19:06:05;;;;;;;2.72;1.48;;;20.90;76.20;;;;;;10371418;28;20018;-54
2023/07/31 19:11:05;;;;;;;4.70;1.20;;;20.90;76.80;;;;;;10348988;28;20068;-56
2023/07/31 19:16:06;;;;;;;2.53;1.30;;;21.00;76.30;;;;;;10354766;28;20121;-53
2023/07/31 19:21:07;;;;;;;2.80;1.58;;;21.00;75.80;;;;;;10364347;28;20030;-54
2023/07/31 19:26:09;;;;;;;2.33;1.40;;;21.00;75.70;;;;;;10363150;28;20087;-53
2023/07/31 19:31:09;;;;;;;2.90;1.83;;;20.90;75.50;;;;;;10360882;28;20084;-54
2023/07/31 19:36:10;;;;;;;3.80;1.45;;;20.80;75.30;;;;;;10362388;28;20196;-54
2023/07/31 19:41:11;;;;;;;2.53;1.20;;;20.80;75.10;;;;;;10364219;28;20101;-54
2023/07/31 19:46:12;;;;;;;2.67;1.27;;;20.80;75.30;;;;;;10362725;28;20462;-54
2023/07/31 19:51:12;;;;;;;1.70;1.23;;;20.80;75.10;;;;;;10360472;28;20038;-53
2023/07/31 19:56:13;;;;;;;2.00;1.40;;;20.80;75.00;;;;;;10363150;28;20034;-54
2023/07/31 20:01:14;;;;;;;2.50;1.65;;;20.80;75.00;;;;;;10358940;28;20036;-53
2023/07/31 20:06:14;;;;;;;4.00;1.42;;;20.80;75.00;;;;;;10323529;28;20058;-54
2023/07/31 20:11:15;;;;;;;1.65;1.00;;;20.80;74.90;;;;;;10336616;28;20097;-53
2023/07/31 20:16:19;;;;;;;2.33;1.50;;;20.80;74.90;;;;;;10345747;28;20032;-54
2023/07/31 20:21:19;;;;;;;1.90;1.13;;;20.80;74.70;;;;;;10363013;28;20021;-54
2023/07/31 20:26:20;;;;;;;1.35;0.82;;;20.80;74.70;;;;;;10367806;28;20028;-54
2023/07/31 20:31:21;;;;;;;2.13;1.20;;;20.80;74.60;;;;;;10369177;28;20103;-54
2023/07/31 20:36:21;;;;;;;2.83;1.17;;;20.80;74.40;;;;;;10370227;28;20109;-53
2023/07/31 20:41:22;;;;;;;1.83;1.00;;;20.70;74.40;;;;;;10369797;28;20056;-55
2023/07/31 20:46:23;;;;;;;1.58;0.90;;;20.70;74.20;;;;;;10370676;28;20030;-53
2023/07/31 20:51:23;;;;;;;2.20;1.13;;;20.70;74.10;;;;;;10369900;28;20033;-52
2023/07/31 20:56:24;;;;;;;1.60;1.00;;;20.70;74.20;;;;;;10368862;28;20113;-54
2023/07/31 21:01:25;;;;;;;3.50;0.93;;;20.70;74.20;;;;;;10368655;28;20038;-54
2023/07/31 21:06:26;;;;;;;2.28;1.20;;;20.70;73.90;;;;;;10369778;28;20529;-53
2023/07/31 21:11:26;;;;;;;1.70;1.08;;;20.70;74.00;;;;;;10346680;28;20045;-54
2023/07/31 21:16:27;;;;;;;1.73;1.20;;;20.70;73.80;;;;;;10352595;28;20026;-54
2023/07/31 21:21:28;;;;;;;2.22;1.35;;;20.70;73.80;;;;;;10368635;28;20463;-54
2023/07/31 21:26:28;;;;;;;2.05;0.95;;;20.70;73.80;;;;;;10368621;28;20030;-54
2023/07/31 21:31:29;;;;;;;1.95;0.88;;;20.70;73.90;;;;;;10368168;28;20048;-54
2023/07/31 21:36:30;;;;;;;2.10;0.90;;;20.70;73.70;;;;;;10368214;28;20538;-54
2023/07/31 21:41:30;;;;;;;4.72;1.10;;;20.70;73.70;;;;;;10366847;28;20136;-54
2023/07/31 21:46:31;;;;;;;1.88;1.10;;;20.70;73.60;;;;;;10366316;28;20040;-50
2023/07/31 21:51:32;;;;;;;2.80;1.45;;;20.70;73.50;;;;;;10367655;28;20044;-54
2023/07/31 21:56:33;;;;;;;1.98;0.88;;;20.70;73.50;;;;;;10367471;28;20513;-54
2023/07/31 22:01:33;;;;;;;2.00;1.02;;;20.70;73.70;;;;;;10367111;28;20528;-54
2023/07/31 22:06:34;;;;;;;1.77;0.95;;;20.70;73.50;;;;;;10367068;28;20030;-54
2023/07/31 22:11:35;;;;;;;1.67;1.15;;;20.70;73.50;;;;;;10342966;28;20026;-53
2023/07/31 22:16:36;;;;;;;2.53;1.15;;;20.60;73.40;;;;;;10351286;28;20156;-54
2023/07/31 22:21:37;;;;;;;1.95;1.30;;;20.60;73.40;;;;;;10366888;28;20018;-54
2023/07/31 22:26:38;;;;;;;2.28;1.00;;;20.60;73.60;;;;;;10364953;28;20061;-53
2023/07/31 22:31:39;;;;;;;1.98;1.27;;;20.60;74.20;;;;;;10365449;28;20026;-52
2023/07/31 22:36:39;;;;;;;2.45;1.00;;;20.60;73.50;;;;;;10365802;28;20048;-54
2023/07/31 22:41:40;;;;;;;1.38;0.80;;;20.60;73.40;;;;;;10365616;28;20050;-54
2023/07/31 22:46:41;;;;;;;2.05;1.02;;;20.60;73.40;;;;;;10365253;28;20021;-53
2023/07/31 22:51:42;;;;;;;1.67;0.98;;;20.60;73.40;;;;;;10365784;28;20022;-54
2023/07/31 22:56:42;;;;;;;1.77;1.10;;;20.60;73.40;;;;;;10363318;28;20030;-53
2023/07/31 23:01:43;;;;;;;1.33;0.93;;;20.60;73.50;;;;;;10330229;28;20042;-54
2023/07/31 23:06:43;;;;;;;2.30;1.50;;;20.60;73.50;;;;;;10324240;28;20443;-53
2023/07/31 23:11:44;;;;;;;2.85;0.95;;;20.60;73.50;;;;;;10336927;28;20069;-53
2023/07/31 23:16:45;;;;;;;1.20;0.95;;;20.60;73.40;;;;;;10350722;28;20037;-53
2023/07/31 23:21:45;;;;;;;1.95;0.93;;;20.60;73.40;;;;;;10364272;28;20046;-53
2023/07/31 23:26:46;;;;;;;1.35;1.10;;;20.60;73.40;;;;;;10361437;28;20045;-53
2023/07/31 23:31:47;;;;;;;1.95;1.00;;;20.60;73.40;;;;;;10323264;28;20113;-53
2023/07/31 23:36:47;;;;;;;2.10;1.00;;;20.60;73.40;;;;;;10321779;28;20038;-54
2023/07/31 23:41:48;;;;;;;2.15;1.20;;;20.60;73.40;;;;;;10323404;28;20155;-54
2023/07/31 23:46:49;;;;;;;2.58;1.20;;;20.60;73.50;;;;;;10336820;28;20512;-52
2023/07/31 23:51:49;;;;;;;3.30;1.10;;;20.60;73.40;;;;;;10363638;28;20101;-53
2023/07/31 23:56:50;;;;;;;1.90;1.13;;;20.50;73.40;;;;;;10351305;28;20097;-52
